This is the latest recevied weather packets stored in our database for station/object VK3VJP-13. If no packets are shown the sender has not sent any weather packets the latest 1 day(s).
| Time | Temp. | Humidity | Pressure | Rain* | Wind** | Luminosity | Snow |
|---|---|---|---|---|---|---|---|
| 1836274746 | 10.56° C | 68% | 1011.5 hPa | 0 mm | 2.68 m/s, 322° | - | - |
| 1836274446 | 10.56° C | 70% | 1011.7 hPa | 0 mm | 2.68 m/s, 272° | - | - |
| 1836274296 | 10.56° C | 66% | 1011.6 hPa | 0 mm | 2.68 m/s, 295° | - | - |
| 1836274146 | 10.56° C | 71% | 1011.7 hPa | 0 mm | 3.13 m/s, 279° | - | - |
| 1778063581 | 6.11° C | 93% | 1018.1 hPa | 0.51 mm | 1.79 m/s, 240° | - | - |
| 1778063281 | 6.11° C | 93% | 1018.1 hPa | 0.76 mm | 1.79 m/s, 254° | - | - |
| 1778062981 | 6.11° C | 93% | 1018.2 hPa | 0.76 mm | 2.24 m/s, 270° | - | - |
| 1778062681 | 6.11° C | 93% | 1018.1 hPa | 0.76 mm | 1.79 m/s, 252° | - | - |
| 1778062381 | 6.67° C | 93% | 1018.1 hPa | 0.76 mm | 1.79 m/s, 269° | - | - |
| 1778062081 | 6.67° C | 93% | 1018 hPa | 0.76 mm | 1.79 m/s, 266° | - | - |
| 1778061781 | 6.67° C | 92% | 1017.9 hPa | 0.51 mm | 2.24 m/s, 244° | - | - |
| 1778061481 | 7.22° C | 92% | 1017.7 hPa | 0.51 mm | 2.68 m/s, 264° | - | - |
| 1778061181 | 7.22° C | 92% | 1017.5 hPa | 0.51 mm | 2.68 m/s, 222° | - | - |
| 1778060881 | 7.78° C | 93% | 1017.3 hPa | 0.25 mm | 2.24 m/s, 212° | - | - |
| 1778060581 | 7.78° C | 93% | 1017.2 hPa | 0.51 mm | 2.24 m/s, 219° | - | - |
| 1778060281 | 7.78° C | 93% | 1017 hPa | 0.76 mm | 2.24 m/s, 234° | - | - |
| 1778059981 | 7.78° C | 93% | 1017.1 hPa | 1.02 mm | 2.24 m/s, 223° | - | - |
| 1778059681 | 7.78° C | 93% | 1017 hPa | 0.76 mm | 2.24 m/s, 241° | - | - |
| 1778059381 | 7.78° C | 93% | 1016.9 hPa | 1.27 mm | 2.24 m/s, 175° | - | - |
| 1778059081 | 8.33° C | 93% | 1016.9 hPa | 3.05 mm | 2.24 m/s, 294° | - | - |
| 1778058781 | 8.33° C | 93% | 1016.7 hPa | 3.05 mm | 1.79 m/s, 292° | - | - |
| 1778058481 | 8.33° C | 92% | 1016.6 hPa | 3.05 mm | 1.79 m/s, 167° | - | - |
| 1778058181 | 8.33° C | 92% | 1016.5 hPa | 3.3 mm | 2.24 m/s, 252° | - | - |
| 1778057889 | 8.33° C | 92% | 1016.5 hPa | 3.3 mm | 2.24 m/s, 264° | - | - |
| 1778057581 | 8.89° C | 92% | 1016.4 hPa | 3.3 mm | 1.79 m/s, 281° | - | - |
* Rain latest hour (hover to see other rain measurements)
** Current wind speed in m/s (hover to see current wind gust speed)